Time;durP1;ratioP1;P1;durP2;ratioP2;P2;SDS_P1;SDS_P2;PMS_P1;PMS_P2;Temp;Humidity;BMP_temperature;BMP_pressure;BME280_temperature;BME280_humidity;BME280_pressure;Samples;Min_cycle;Max_cycle;Signal;HPM_P1;HPM_P2
2021/08/03 00:02:21;;;;;;;5.43;1.45;;;;;;;10.87;100.00;100405.53;4978402;28;20027;-81
2021/08/03 00:04:48;;;;;;;6.10;1.67;;;;;;;10.93;100.00;100404.50;4976312;28;20030;-81
2021/08/03 00:07:18;;;;;;;5.43;1.42;;;;;;;10.91;100.00;100414.09;4977279;28;20022;-81
2021/08/03 00:09:45;;;;;;;6.78;1.48;;;;;;;11.01;100.00;100411.25;4977041;28;20113;-81
2021/08/03 00:12:13;;;;;;;4.70;1.60;;;;;;;10.96;100.00;100409.63;4976521;28;20446;-81
2021/08/03 00:14:48;;;;;;;4.90;1.83;;;;;;;10.99;100.00;100409.56;4980087;28;20019;-81
2021/08/03 00:17:17;;;;;;;5.90;2.00;;;;;;;11.05;100.00;100410.31;4980734;28;20030;-81
2021/08/03 00:19:43;;;;;;;8.38;1.85;;;;;;;11.08;100.00;100406.75;4981256;28;20451;-80
2021/08/03 00:22:08;;;;;;;9.23;2.53;;;;;;;11.15;100.00;100397.13;4981244;28;20054;-81
2021/08/03 00:24:34;;;;;;;5.80;2.17;;;;;;;11.17;100.00;100398.75;4981016;28;20037;-81
2021/08/03 00:27:00;;;;;;;7.95;2.03;;;;;;;11.24;100.00;100402.94;4982809;28;20041;-80
2021/08/03 00:29:25;;;;;;;8.05;2.00;;;;;;;11.32;100.00;100407.09;4997766;28;20022;-81
2021/08/03 00:31:51;;;;;;;6.22;2.20;;;;;;;11.39;100.00;100403.44;4981912;28;20037;-81
2021/08/03 00:34:17;;;;;;;9.25;2.10;;;;;;;11.38;100.00;100414.72;4980540;28;20420;-81
2021/08/03 00:36:42;;;;;;;8.88;1.70;;;;;;;11.36;100.00;100403.50;4981056;28;20078;-81
2021/08/03 00:39:08;;;;;;;6.47;1.85;;;;;;;11.39;100.00;100413.81;4998179;28;20022;-81
2021/08/03 00:41:46;;;;;;;8.15;2.50;;;;;;;11.45;100.00;100413.69;4985438;28;20078;-81
2021/08/03 00:44:11;;;;;;;4.97;1.85;;;;;;;11.51;100.00;100408.34;4984814;28;20030;-81
2021/08/03 00:46:37;;;;;;;5.25;1.70;;;;;;;11.56;100.00;100408.25;4983117;28;20054;-81
2021/08/03 00:49:03;;;;;;;6.22;2.10;;;;;;;11.55;100.00;100412.59;4983260;28;20027;-82
2021/08/03 00:51:29;;;;;;;6.32;2.00;;;;;;;11.56;100.00;100408.25;4984883;28;20026;-81
2021/08/03 00:53:54;;;;;;;7.22;2.08;;;;;;;11.59;100.00;100410.75;4984208;28;20364;-81
2021/08/03 00:56:19;;;;;;;6.50;2.25;;;;;;;11.70;100.00;100408.75;4983026;28;20025;-81
2021/08/03 00:58:45;;;;;;;7.68;2.42;;;;;;;11.79;100.00;100399.84;4984539;28;20078;-81
2021/08/03 01:01:11;;;;;;;6.00;2.00;;;;;;;11.86;100.00;100397.09;4982447;28;20030;-81
2021/08/03 01:03:36;;;;;;;5.93;2.22;;;;;;;11.93;100.00;100403.84;4984221;28;20057;-81
2021/08/03 01:06:07;;;;;;;7.75;2.00;;;;;;;11.95;100.00;100403.81;4982837;28;20030;-81
2021/08/03 01:09:23;;;;;;;10.43;2.35;;;;;;;11.97;100.00;100402.84;4984829;28;20033;-81
2021/08/03 01:12:24;;;;;;;7.18;2.08;;;;;;;12.05;100.00;100412.22;4907671;29;20119;-81
2021/08/03 01:15:05;;;;;;;7.38;2.40;;;;;;;12.08;100.00;100414.75;4907902;29;20032;-81
2021/08/03 01:17:40;;;;;;;7.95;2.38;;;;;;;12.12;100.00;100411.16;4966921;28;20418;-81
2021/08/03 01:20:16;;;;;;;5.50;2.45;;;;;;;12.11;100.00;100417.25;4983805;28;20037;-82
2021/08/03 01:23:19;;;;;;;6.70;2.33;;;;;;;12.13;100.00;100418.03;4981372;28;20066;-81
2021/08/03 01:25:59;;;;;;;6.72;2.65;;;;;;;12.15;100.00;100416.28;4982746;28;20022;-81
2021/08/03 01:28:26;;;;;;;7.45;2.40;;;;;;;12.16;100.00;100415.38;4984199;28;20026;-81
2021/08/03 01:30:57;;;;;;;6.43;2.38;;;;;;;12.19;100.00;100418.75;4983479;28;20448;-81
2021/08/03 01:33:26;;;;;;;5.93;2.60;;;;;;;12.23;100.00;100410.88;4983618;28;20023;-81
2021/08/03 01:35:52;;;;;;;7.05;2.58;;;;;;;12.24;100.00;100416.03;4986361;28;20460;-81
2021/08/03 01:38:20;;;;;;;9.98;2.42;;;;;;;12.23;100.00;100408.28;4982855;28;20034;-81
2021/08/03 01:40:49;;;;;;;6.63;2.45;;;;;;;12.23;100.00;100416.06;4985307;28;20027;-81
2021/08/03 01:43:15;;;;;;;7.18;2.55;;;;;;;12.31;100.00;100414.09;4985383;28;20030;-82
2021/08/03 01:45:41;;;;;;;9.48;2.45;;;;;;;12.28;100.00;100417.63;4985290;28;20482;-81
2021/08/03 01:48:09;;;;;;;5.50;2.10;;;;;;;12.28;100.00;100419.38;4985994;28;20102;-81
2021/08/03 01:50:35;;;;;;;7.72;2.17;;;;;;;12.31;100.00;100421.91;4999403;28;20091;-81
2021/08/03 01:53:03;;;;;;;8.20;2.53;;;;;;;12.31;100.00;100419.28;4983754;28;20102;-81
2021/08/03 01:55:31;;;;;;;7.55;2.30;;;;;;;12.30;100.00;100420.19;4983498;28;20031;-81
2021/08/03 01:57:56;;;;;;;5.47;2.42;;;;;;;12.23;100.00;100416.06;4984411;28;20554;-81
2021/08/03 02:00:22;;;;;;;6.93;1.90;;;;;;;12.20;100.00;100412.66;4986510;28;20026;-81
2021/08/03 02:02:47;;;;;;;4.78;2.22;;;;;;;12.17;100.00;100419.69;4984313;28;20395;-80
2021/08/03 02:05:14;;;;;;;5.28;2.28;;;;;;;12.14;100.00;100419.78;4985645;28;20026;-81
2021/08/03 02:07:41;;;;;;;9.43;2.15;;;;;;;12.11;100.00;100425.91;4985208;28;20109;-81
2021/08/03 02:10:07;;;;;;;7.88;2.13;;;;;;;12.09;100.00;100422.47;4985730;28;20177;-81
2021/08/03 02:12:34;;;;;;;8.30;2.40;;;;;;;12.07;100.00;100424.28;4984462;28;20121;-81
2021/08/03 02:14:59;;;;;;;5.40;1.88;;;;;;;12.05;100.00;100431.25;4985486;28;20038;-81
2021/08/03 02:17:25;;;;;;;6.50;2.47;;;;;;;12.00;100.00;100430.53;4984402;28;20118;-81
2021/08/03 02:19:50;;;;;;;6.90;2.58;;;;;;;11.92;100.00;100424.69;5000697;28;20031;-81
2021/08/03 02:22:17;;;;;;;5.95;2.20;;;;;;;11.93;100.00;100431.59;4985406;28;20022;-81
2021/08/03 02:24:43;;;;;;;7.50;2.63;;;;;;;11.92;100.00;100424.69;4984332;28;20031;-81
2021/08/03 02:27:08;;;;;;;6.43;2.40;;;;;;;11.88;100.00;100428.25;4986209;28;20033;-81
2021/08/03 02:29:38;;;;;;;5.50;2.22;;;;;;;11.86;100.00;100424.84;4987164;28;20030;-81
2021/08/03 02:32:16;;;;;;;6.32;2.40;;;;;;;11.88;100.00;100428.25;4987313;28;20086;-81
2021/08/03 02:34:57;;;;;;;5.65;2.05;;;;;;;11.89;100.00;100424.75;4986546;28;20018;-81
2021/08/03 02:37:32;;;;;;;9.85;2.55;;;;;;;11.83;100.00;100422.28;4990526;28;20101;-81
2021/08/03 02:40:00;;;;;;;5.25;2.33;;;;;;;11.88;100.00;100429.09;4996260;28;20041;-80
2021/08/03 02:42:26;;;;;;;5.10;1.98;;;;;;;11.89;100.00;100429.97;4996854;28;20034;-80
2021/08/03 02:45:02;;;;;;;5.70;2.03;;;;;;;11.87;100.00;100426.53;4995981;28;20046;-81
2021/08/03 02:47:36;;;;;;;6.00;1.92;;;;;;;11.85;100.00;100420.53;4996246;28;20022;-81
2021/08/03 02:50:06;;;;;;;6.47;2.22;;;;;;;11.84;100.00;100417.03;4982166;28;20027;-81
2021/08/03 02:52:36;;;;;;;6.65;2.03;;;;;;;11.78;100.00;100421.53;4974631;28;20111;-81
2021/08/03 02:55:07;;;;;;;6.55;2.33;;;;;;;11.69;100.00;100417.44;4974592;28;20061;-81
2021/08/03 02:57:35;;;;;;;5.47;2.25;;;;;;;11.58;100.00;100422.06;4976263;28;20049;-81
2021/08/03 03:00:06;;;;;;;7.45;2.30;;;;;;;11.47;100.00;100417.97;4976027;28;20031;-81
2021/08/03 03:02:37;;;;;;;6.22;2.20;;;;;;;11.42;100.00;100416.34;4974833;28;20022;-81
2021/08/03 03:05:06;;;;;;;5.88;2.17;;;;;;;11.35;100.00;100426.03;4975893;28;20081;-81
2021/08/03 03:07:35;;;;;;;6.38;1.95;;;;;;;11.31;100.00;100415.78;4975680;28;20023;-81
2021/08/03 03:10:06;;;;;;;7.63;2.40;;;;;;;11.26;100.00;100416.72;4974690;28;20018;-81
2021/08/03 03:12:35;;;;;;;7.22;2.03;;;;;;;11.26;100.00;100416.72;4974786;28;20125;-81
2021/08/03 03:15:03;;;;;;;7.80;2.10;;;;;;;11.14;100.00;100424.78;4974858;28;20398;-81
2021/08/03 03:17:32;;;;;;;6.75;2.10;;;;;;;11.12;100.00;100424.00;4973955;28;20523;-81
2021/08/03 03:19:58;;;;;;;5.28;2.40;;;;;;;11.09;100.00;100426.66;4974516;28;20518;-81
2021/08/03 03:22:25;;;;;;;6.30;2.40;;;;;;;11.03;100.00;100426.78;4975721;28;20038;-81
2021/08/03 03:24:52;;;;;;;6.68;2.28;;;;;;;11.04;100.00;100423.28;4974250;28;20109;-81
2021/08/03 03:27:19;;;;;;;6.80;2.38;;;;;;;11.00;100.00;100432.03;4976873;28;20105;-81
2021/08/03 03:29:45;;;;;;;7.53;2.35;;;;;;;10.93;100.00;100427.84;4974892;28;20066;-81
2021/08/03 03:32:11;;;;;;;7.38;2.67;;;;;;;10.93;100.00;100427.84;4974007;28;20031;-81
2021/08/03 03:34:41;;;;;;;7.25;2.67;;;;;;;10.93;100.00;100430.44;4975234;28;20508;-81
2021/08/03 03:37:06;;;;;;;9.05;2.40;;;;;;;10.99;100.00;100425.13;4973367;28;20166;-82
2021/08/03 03:39:35;;;;;;;5.97;2.45;;;;;;;10.97;100.00;100432.13;4973342;28;20122;-82
2021/08/03 03:42:01;;;;;;;7.30;2.38;;;;;;;10.88;100.00;100432.31;4974866;28;20026;-81
2021/08/03 03:44:28;;;;;;;5.93;2.58;;;;;;;10.94;100.00;100432.19;4973132;28;20023;-81
2021/08/03 03:47:08;;;;;;;5.60;2.45;;;;;;;10.93;100.00;100431.34;4973508;28;20019;-82
2021/08/03 03:49:41;;;;;;;7.80;2.50;;;;;;;11.01;100.00;100444.13;4989526;28;20487;-81
2021/08/03 03:52:07;;;;;;;4.85;2.20;;;;;;;11.02;100.00;100438.03;4973306;28;20034;-81
2021/08/03 03:54:39;;;;;;;8.07;2.30;;;;;;;11.06;100.00;100434.50;4973049;28;20031;-81
2021/08/03 03:57:08;;;;;;;6.45;2.42;;;;;;;11.18;100.00;100439.44;4975158;28;20493;-81
2021/08/03 03:59:37;;;;;;;5.78;2.50;;;;;;;11.22;100.00;100435.00;4973638;28;20026;-81
2021/08/03 04:02:06;;;;;;;6.15;2.55;;;;;;;11.26;100.00;100432.28;4973138;28;20494;-81
2021/08/03 04:04:34;;;;;;;7.10;2.60;;;;;;;11.27;100.00;100431.44;4973286;28;20546;-81
2021/08/03 04:07:00;;;;;;;5.65;2.50;;;;;;;11.27;100.00;100439.22;4974217;28;20023;-82
2021/08/03 04:09:25;;;;;;;7.28;2.70;;;;;;;11.32;100.00;100433.91;4973503;28;20019;-81
2021/08/03 04:11:52;;;;;;;10.02;2.70;;;;;;;11.39;100.00;100439.81;4973173;28;20114;-82
2021/08/03 04:14:22;;;;;;;6.10;2.70;;;;;;;11.44;100.00;100441.41;4975898;28;20026;-82
2021/08/03 04:16:49;;;;;;;4.75;2.13;;;;;;;11.42;100.00;100440.59;4976136;28;20436;-82
2021/08/03 04:19:14;;;;;;;6.88;2.90;;;;;;;11.51;100.00;100445.59;4976022;28;20037;-82
2021/08/03 04:21:39;;;;;;;9.60;3.05;;;;;;;11.50;100.00;100448.19;4975992;28;20023;-81
2021/08/03 04:24:05;;;;;;;6.82;2.85;;;;;;;11.57;100.00;100452.34;4992576;28;20023;-81
2021/08/03 04:26:30;;;;;;;7.47;2.95;;;;;;;11.62;100.00;100453.09;4978967;28;20122;-81
2021/08/03 04:28:55;;;;;;;5.30;2.83;;;;;;;11.64;100.00;100453.09;4976435;28;20039;-81
2021/08/03 04:31:21;;;;;;;8.45;3.33;;;;;;;11.63;100.00;100454.78;4943637;28;1016657;-81
2021/08/03 04:33:46;;;;;;;6.47;2.70;;;;;;;11.60;100.00;100447.09;4977123;28;20023;-82
2021/08/03 04:36:11;;;;;;;9.85;3.22;;;;;;;11.57;100.00;100449.75;4978447;28;20031;-81
2021/08/03 04:38:36;;;;;;;7.05;2.83;;;;;;;11.69;100.00;100452.06;4978968;28;20443;-81
2021/08/03 04:41:02;;;;;;;8.18;3.00;;;;;;;11.64;100.00;100448.72;4980656;28;20027;-81
2021/08/03 04:43:28;;;;;;;9.52;2.70;;;;;;;11.71;100.00;100454.63;4980813;28;20026;-81
2021/08/03 04:45:54;;;;;;;6.10;2.55;;;;;;;11.71;100.00;100458.06;4996584;28;20092;-81
2021/08/03 04:48:19;;;;;;;7.15;2.90;;;;;;;11.77;100.00;100451.03;4979755;28;20101;-81
2021/08/03 04:50:45;;;;;;;7.25;3.20;;;;;;;11.84;100.00;100452.56;4981702;28;20022;-81
2021/08/03 04:53:10;;;;;;;7.00;3.28;;;;;;;11.82;100.00;100455.19;4979478;28;20026;-81
2021/08/03 04:55:35;;;;;;;6.45;2.70;;;;;;;11.84;100.00;100460.38;4981078;28;20110;-81
2021/08/03 04:58:00;;;;;;;5.72;3.00;;;;;;;11.84;100.00;100465.56;4979901;28;20479;-82
2021/08/03 05:00:26;;;;;;;8.65;2.85;;;;;;;11.90;100.00;100455.06;4995650;28;20570;-81
2021/08/03 05:02:51;;;;;;;5.53;2.35;;;;;;;11.95;100.00;100461.00;4979084;28;20023;-81
2021/08/03 05:05:16;;;;;;;5.60;2.65;;;;;;;11.97;100.00;100459.19;4980346;28;20200;-81
2021/08/03 05:08:00;;;;;;;8.07;2.83;;;;;;;12.00;100.00;100466.06;4981096;28;20019;-81
2021/08/03 05:10:27;;;;;;;5.85;2.83;;;;;;;12.02;100.00;100452.13;4981071;28;20023;-81
2021/08/03 05:12:53;;;;;;;6.30;2.60;;;;;;;12.05;100.00;100461.63;4979793;28;20033;-81
2021/08/03 05:15:19;;;;;;;7.25;2.42;;;;;;;12.04;100.00;100444.28;4979611;28;20023;-81
2021/08/03 05:17:44;;;;;;;7.28;2.67;;;;;;;12.15;100.00;100452.66;4979369;28;20046;-81
2021/08/03 05:20:10;;;;;;;7.85;2.80;;;;;;;12.16;100.00;100449.16;4979235;28;20114;-81
2021/08/03 05:22:36;;;;;;;9.40;2.95;;;;;;;12.15;100.00;100447.47;4979401;28;20023;-81
2021/08/03 05:25:01;;;;;;;6.78;2.47;;;;;;;12.26;100.00;100447.19;4977471;28;20039;-81
2021/08/03 05:27:27;;;;;;;7.30;2.55;;;;;;;12.26;100.00;100448.03;4979573;28;20530;-81
2021/08/03 05:29:52;;;;;;;7.13;2.67;;;;;;;12.37;100.00;100445.97;4979413;28;20117;-81
2021/08/03 05:32:17;;;;;;;5.35;2.15;;;;;;;12.39;100.00;100451.16;4981436;28;20065;-81
2021/08/03 05:34:43;;;;;;;5.80;2.15;;;;;;;12.44;100.00;100454.50;4987392;28;20082;-81
2021/08/03 05:37:08;;;;;;;5.68;2.17;;;;;;;12.52;100.00;100456.88;4988322;28;20022;-81
2021/08/03 05:39:33;;;;;;;5.38;2.17;;;;;;;12.57;100.00;100453.25;4987856;28;20082;-81
2021/08/03 05:41:59;;;;;;;5.43;2.25;;;;;;;12.64;100.00;100453.94;4989751;28;20035;-81
2021/08/03 05:44:25;;;;;;;6.25;2.13;;;;;;;12.67;100.00;100456.44;4988725;28;20086;-82
2021/08/03 05:46:50;;;;;;;7.03;2.50;;;;;;;12.86;100.00;100459.38;4988597;28;20023;-81
2021/08/03 05:49:15;;;;;;;6.68;2.35;;;;;;;12.87;100.00;100455.88;5004251;28;20031;-82
2021/08/03 05:51:41;;;;;;;5.63;1.90;;;;;;;12.88;100.00;100461.03;4989096;28;20058;-81
2021/08/03 05:54:06;;;;;;;5.10;1.63;;;;;;;12.89;100.00;100456.66;4987845;28;20463;-81
2021/08/03 05:56:31;;;;;;;7.57;1.90;;;;;;;12.95;100.00;100455.63;4988279;28;20042;-81
2021/08/03 05:58:57;;;;;;;5.65;2.00;;;;;;;13.16;100.00;100461.97;4987373;28;20088;-82
2021/08/03 06:01:22;;;;;;;5.95;1.80;;;;;;;13.23;100.00;100459.09;4987528;28;20043;-82
2021/08/03 06:03:47;;;;;;;5.72;2.30;;;;;;;13.32;100.00;100451.03;4989278;28;20054;-81
2021/08/03 06:06:15;;;;;;;4.22;1.73;;;;;;;13.42;100.00;100446.38;5004062;28;20034;-82
2021/08/03 06:08:42;;;;;;;4.80;1.75;;;;;;;13.48;100.00;100453.16;4987481;28;20019;-82
2021/08/03 06:11:10;;;;;;;8.23;1.95;;;;;;;14.07;100.00;100445.13;4989323;28;20203;-82
2021/08/03 06:13:37;;;;;;;5.55;1.90;;;;;;;14.38;100.00;100446.69;4987173;28;20149;-82
2021/08/03 06:16:04;;;;;;;4.72;1.80;;;;;;;14.80;100.00;100444.25;4987107;28;20019;-82
2021/08/03 06:18:37;;;;;;;5.22;1.70;;;;;;;14.46;100.00;100447.22;4988330;28;20380;-82
2021/08/03 06:21:02;;;;;;;5.10;1.58;;;;;;;14.32;100.00;100447.75;4986799;28;20022;-81
2021/08/03 06:23:28;;;;;;;3.83;1.50;;;;;;;14.60;100.00;100441.56;4986367;28;20057;-83
2021/08/03 06:25:57;;;;;;;5.45;1.80;;;;;;;14.66;100.00;100443.94;4984261;28;20055;-83
2021/08/03 06:28:23;;;;;;;4.88;1.27;;;;;;;14.84;100.00;100445.88;4984831;28;20033;-83
2021/08/03 06:30:49;;;;;;;4.97;1.63;;;;;;;14.56;100.00;100442.56;4983901;28;20027;-81
2021/08/03 06:33:17;;;;;;;4.05;1.25;;;;;;;14.53;100.00;100448.72;4985099;28;20103;-81
2021/08/03 06:35:44;;;;;;;3.67;1.25;;;;;;;14.21;100.00;100440.28;4985066;28;20019;-81
2021/08/03 06:38:09;;;;;;;4.78;1.30;;;;;;;14.35;100.00;100442.41;4985519;28;20030;-81
2021/08/03 06:40:39;;;;;;;4.75;1.33;;;;;;;14.60;100.00;100450.22;4986392;28;20027;-81
2021/08/03 06:43:13;;;;;;;4.72;1.10;;;;;;;14.71;100.00;100460.25;4981161;28;20510;-80
2021/08/03 06:45:39;;;;;;;2.55;0.95;;;;;;;14.74;100.00;100454.94;4985083;28;20027;-82
2021/08/03 06:48:07;;;;;;;3.13;0.95;;;;;;;14.87;100.00;100455.31;4985120;28;20086;-81
2021/08/03 06:50:38;;;;;;;3.40;1.10;;;;;;;15.26;100.00;100447.72;4985638;28;20026;-80
2021/08/03 06:53:05;;;;;;;4.45;1.30;;;;;;;15.19;100.00;100460.19;4985946;28;20053;-82
2021/08/03 06:55:32;;;;;;;5.68;1.40;;;;;;;15.48;100.00;100455.56;4981844;28;20558;-81
2021/08/03 06:58:03;;;;;;;6.15;1.17;;;;;;;15.71;100.00;100456.44;4980260;28;20034;-81
2021/08/03 07:00:36;;;;;;;3.75;0.95;;;;;;;15.47;100.00;100466.09;4980239;28;20491;-81
2021/08/03 07:03:04;;;;;;;7.10;1.40;;;;;;;15.91;100.00;100455.59;4979573;28;20058;-81
2021/08/03 07:05:30;;;;;;;3.15;1.00;;;;;;;15.85;100.00;100452.31;4978944;28;20117;-81
2021/08/03 07:07:57;;;;;;;4.30;0.85;;;;;;;16.51;100.00;100459.94;4978908;28;20109;-81
2021/08/03 07:10:23;;;;;;;3.22;1.10;;;;;;;16.43;100.00;100462.06;4980161;28;20098;-80
2021/08/03 07:12:51;;;;;;;3.30;1.02;;;;;;;16.84;100.00;100461.13;4982015;28;20046;-81
2021/08/03 07:15:18;;;;;;;3.63;1.20;;;;;;;16.84;100.00;100463.75;4981765;28;20026;-81
2021/08/03 07:17:44;;;;;;;5.85;1.10;;;;;;;17.12;100.00;100466.81;4979042;28;20037;-81
2021/08/03 07:20:10;;;;;;;4.03;1.20;;;;;;;17.41;100.00;100467.22;4980979;28;20118;-81
2021/08/03 07:22:36;;;;;;;4.18;1.10;;;;;;;17.39;98.02;100466.41;4977730;28;20062;-81
2021/08/03 07:25:04;;;;;;;5.53;1.50;;;;;;;17.91;97.66;100461.28;4980801;28;20502;-82
2021/08/03 07:27:29;;;;;;;6.30;1.40;;;;;;;17.56;100.00;100465.63;4981424;28;20049;-80
2021/08/03 07:29:54;;;;;;;4.03;1.45;;;;;;;17.65;99.22;100465.19;4995803;28;20019;-81
2021/08/03 07:32:20;;;;;;;4.00;1.20;;;;;;;16.90;99.01;100468.72;4980052;28;20519;-81
2021/08/03 07:34:45;;;;;;;3.70;1.17;;;;;;;17.67;100.00;100458.06;4995012;28;20030;-81
2021/08/03 07:37:11;;;;;;;4.43;0.82;;;;;;;17.73;95.30;100473.50;4980177;28;20023;-81
2021/08/03 07:39:37;;;;;;;3.42;1.10;;;;;;;17.93;93.28;100467.31;4978295;28;20026;-80
2021/08/03 07:42:04;;;;;;;3.13;1.00;;;;;;;18.06;93.37;100465.75;4980080;28;20082;-82
2021/08/03 07:44:29;;;;;;;2.13;0.80;;;;;;;18.34;92.32;100464.34;4980334;28;20022;-82
2021/08/03 07:46:54;;;;;;;2.80;0.70;;;;;;;18.38;90.01;100466.72;4977490;28;20073;-82
2021/08/03 07:49:19;;;;;;;2.40;0.63;;;;;;;18.26;90.51;100466.53;4981338;28;20105;-81
2021/08/03 07:51:46;;;;;;;2.20;0.60;;;;;;;18.58;92.32;100468.31;4981147;28;20025;-81
2021/08/03 07:54:12;;;;;;;2.05;0.70;;;;;;;18.16;89.73;100463.50;4981395;28;20081;-81
2021/08/03 07:56:37;;;;;;;3.13;0.80;;;;;;;18.10;93.56;100467.31;4983980;28;20034;-84
2021/08/03 07:59:02;;;;;;;1.73;0.75;;;;;;;17.57;93.44;100467.31;4999001;28;20037;-82
2021/08/03 08:01:28;;;;;;;3.92;0.70;;;;;;;17.14;96.52;100467.59;4983440;28;20030;-81
2021/08/03 08:03:53;;;;;;;1.52;0.57;;;;;;;17.30;96.75;100466.84;4983653;28;20027;-81
2021/08/03 08:06:18;;;;;;;3.53;0.70;;;;;;;17.35;94.45;100459.63;4982071;28;20033;-81
2021/08/03 08:08:44;;;;;;;4.93;0.70;;;;;;;17.25;89.84;100461.84;4985202;28;20023;-82
2021/08/03 08:11:10;;;;;;;2.85;0.77;;;;;;;17.44;87.85;100465.28;4985299;28;20113;-83
2021/08/03 08:13:35;;;;;;;4.70;0.80;;;;;;;17.37;89.65;100463.03;4983995;28;20054;-81
2021/08/03 08:16:00;;;;;;;2.78;0.60;;;;;;;17.38;89.70;100459.50;4999447;28;20037;-81
2021/08/03 08:18:26;;;;;;;3.42;0.80;;;;;;;17.02;91.54;100452.44;4998683;28;20118;-81
2021/08/03 08:20:51;;;;;;;2.67;0.60;;;;;;;16.44;92.35;100455.91;4984801;28;20031;-81
2021/08/03 08:23:16;;;;;;;2.67;0.68;;;;;;;15.98;98.36;100450.06;4981464;28;20487;-80
2021/08/03 08:25:44;;;;;;;2.88;0.77;;;;;;;16.17;100.00;100455.34;4982375;28;20031;-80
2021/08/03 08:28:09;;;;;;;3.22;0.60;;;;;;;16.79;95.63;100449.13;4982343;28;20023;-80
2021/08/03 08:30:36;;;;;;;5.28;0.95;;;;;;;17.60;92.51;100457.50;4983060;28;20037;-80
2021/08/03 08:33:03;;;;;;;3.55;0.82;;;;;;;18.74;86.80;100454.38;4982743;28;20027;-80
2021/08/03 08:35:28;;;;;;;3.40;0.70;;;;;;;20.01;75.82;100441.94;4982637;28;20042;-80
2021/08/03 08:37:54;;;;;;;3.03;1.00;;;;;;;18.61;78.74;100454.16;4983348;28;20470;-80
2021/08/03 08:40:19;;;;;;;2.85;0.73;;;;;;;18.41;86.52;100444.69;4982787;28;20027;-80
2021/08/03 08:42:46;;;;;;;4.40;0.80;;;;;;;17.52;84.32;100446.56;4982920;28;20384;-80
2021/08/03 08:45:13;;;;;;;2.75;0.77;;;;;;;17.76;85.08;100451.50;4982594;28;20537;-82
2021/08/03 08:47:42;;;;;;;1.90;0.70;;;;;;;20.54;74.73;100443.16;4985030;28;20026;-82
2021/08/03 08:50:09;;;;;;;2.92;0.65;;;;;;;20.68;72.93;100443.16;4984819;28;20092;-80
2021/08/03 08:52:38;;;;;;;1.95;0.70;;;;;;;18.75;78.41;100441.19;4985545;28;20056;-80
2021/08/03 08:55:05;;;;;;;3.22;0.80;;;;;;;18.71;82.08;100439.59;4999548;28;20031;-80
2021/08/03 08:57:31;;;;;;;2.55;0.77;;;;;;;18.41;79.60;100447.31;4985202;28;20034;-80
2021/08/03 08:59:57;;;;;;;3.10;0.68;;;;;;;19.08;77.46;100438.44;4986010;28;20049;-80
2021/08/03 09:02:45;;;;;;;2.90;0.80;;;;;;;19.05;76.98;100441.25;4982865;28;20027;-80
2021/08/03 09:05:15;;;;;;;4.40;0.70;;;;;;;19.19;78.36;100437.03;4984126;28;20027;-80
2021/08/03 09:07:57;;;;;;;3.58;0.70;;;;;;;18.95;80.33;100437.44;4984251;28;20006;-80
2021/08/03 09:10:43;;;;;;;4.00;0.93;;;;;;;18.57;80.20;100434.25;4984810;28;20023;-80
2021/08/03 09:13:14;;;;;;;2.65;0.90;;;;;;;19.91;75.70;100431.13;4985051;28;20038;-80
2021/08/03 09:15:54;;;;;;;1.80;0.60;;;;;;;20.76;68.30;100426.03;4985646;28;20058;-80
2021/08/03 09:18:33;;;;;;;3.70;0.70;;;;;;;21.44;64.39;100425.19;4999769;28;20080;-81
2021/08/03 09:20:59;;;;;;;3.97;0.90;;;;;;;21.54;63.14;100419.19;4983453;28;20027;-81
2021/08/03 09:23:41;;;;;;;2.38;0.63;;;;;;;22.59;62.70;100422.66;4985855;28;20105;-80
2021/08/03 09:26:07;;;;;;;3.95;0.70;;;;;;;22.90;57.61;100418.69;4986700;28;20399;-80
2021/08/03 09:28:33;;;;;;;1.52;0.60;;;;;;;23.10;56.96;100420.78;4983339;28;20027;-81
2021/08/03 09:30:58;;;;;;;2.28;0.60;;;;;;;23.51;55.70;100414.22;4985247;28;20102;-80
2021/08/03 09:33:26;;;;;;;2.15;0.70;;;;;;;22.06;59.27;100414.84;4983310;28;20027;-81
2021/08/03 09:35:54;;;;;;;3.58;0.68;;;;;;;22.66;64.80;100422.16;4984273;28;20422;-81
2021/08/03 09:38:20;;;;;;;2.78;0.52;;;;;;;23.35;54.92;100417.16;4986181;28;20110;-81
2021/08/03 09:40:48;;;;;;;2.65;0.60;;;;;;;22.57;56.63;100428.09;4983792;28;20027;-80
2021/08/03 09:43:15;;;;;;;2.13;1.00;;;;;;;22.50;58.70;100416.22;4985372;28;20030;-81
2021/08/03 09:45:43;;;;;;;3.03;0.68;;;;;;;21.94;58.12;100415.69;4984903;28;20023;-81
2021/08/03 09:48:15;;;;;;;2.38;0.60;;;;;;;23.89;54.98;100415.81;4985938;28;20029;-80
2021/08/03 09:50:53;;;;;;;1.92;0.63;;;;;;;24.73;49.49;100405.78;4985059;28;20109;-80
2021/08/03 09:53:39;;;;;;;2.33;0.60;;;;;;;22.49;52.49;100409.25;4985364;28;20034;-81
2021/08/03 09:56:06;;;;;;;3.00;0.80;;;;;;;23.10;50.52;100404.91;4985534;28;20456;-81
2021/08/03 09:58:32;;;;;;;1.70;0.52;;;;;;;23.33;50.63;100405.84;4985335;28;20447;-81
2021/08/03 10:01:21;;;;;;;1.77;0.50;;;;;;;21.59;56.06;100403.06;4987045;28;20035;-80
2021/08/03 10:03:46;;;;;;;7.07;0.93;;;;;;;23.03;55.59;100406.31;4985416;28;20102;-81
2021/08/03 10:06:12;;;;;;;1.40;0.40;;;;;;;21.76;55.86;100404.56;4987418;28;20022;-81
2021/08/03 10:08:37;;;;;;;2.13;0.80;;;;;;;21.38;60.11;100397.41;4985760;28;20038;-81
2021/08/03 10:11:03;;;;;;;1.88;0.57;;;;;;;21.50;62.57;100403.69;4984292;28;20034;-80
2021/08/03 10:13:29;;;;;;;2.78;0.50;;;;;;;21.67;62.16;100405.19;4985858;28;20394;-81
2021/08/03 10:15:55;;;;;;;1.65;0.70;;;;;;;22.55;57.90;100402.72;4987771;28;20455;-81
2021/08/03 10:18:20;;;;;;;0.90;0.43;;;;;;;22.35;60.64;100406.72;4987001;28;20054;-81
2021/08/03 10:20:47;;;;;;;3.07;0.80;;;;;;;22.62;57.89;100415.38;4986576;28;20034;-80
2021/08/03 10:23:13;;;;;;;2.22;0.60;;;;;;;21.74;59.41;100404.69;4987582;28;20293;-80
2021/08/03 10:25:41;;;;;;;2.72;0.70;;;;;;;20.89;62.16;100398.78;4986139;28;20031;-81
2021/08/03 10:28:26;;;;;;;2.30;0.60;;;;;;;19.95;68.17;100400.19;4986188;28;20106;-81
2021/08/03 10:30:52;;;;;;;1.90;0.63;;;;;;;19.31;67.05;100399.53;4986238;28;20023;-80
2021/08/03 10:33:37;;;;;;;3.15;0.95;;;;;;;18.90;71.44;100405.31;4986198;28;20027;-80
2021/08/03 10:36:03;;;;;;;1.48;0.50;;;;;;;18.81;74.01;100411.06;4985702;28;20031;-80
2021/08/03 10:38:28;;;;;;;2.60;0.60;;;;;;;19.03;75.74;100405.50;4986155;28;20023;-80
2021/08/03 10:41:01;;;;;;;2.45;1.05;;;;;;;18.32;78.45;100405.81;4986235;28;20051;-80
2021/08/03 10:43:32;;;;;;;2.47;0.68;;;;;;;18.38;79.01;100405.47;4987595;28;20019;-80
2021/08/03 10:46:07;;;;;;;2.97;0.70;;;;;;;18.52;80.15;100410.00;4987618;28;20513;-80
2021/08/03 10:48:38;;;;;;;3.15;0.70;;;;;;;18.59;80.57;100404.31;4987811;28;20045;-81
2021/08/03 10:51:12;;;;;;;2.58;0.65;;;;;;;18.21;77.77;100402.91;4989753;28;20026;-80
2021/08/03 10:54:04;;;;;;;2.53;0.80;;;;;;;18.13;78.02;100403.28;4996673;28;20032;-80
2021/08/03 10:56:55;;;;;;;2.53;0.55;;;;;;;18.21;80.79;100398.50;4995187;28;20019;-80
2021/08/03 10:59:40;;;;;;;2.25;0.70;;;;;;;18.23;77.02;100399.28;4995049;28;20126;-80
2021/08/03 11:02:26;;;;;;;1.88;0.60;;;;;;;18.11;75.23;100397.28;4994345;28;20018;-80
2021/08/03 11:04:51;;;;;;;2.67;0.70;;;;;;;17.75;77.46;100395.56;4980990;28;20486;-80
2021/08/03 11:07:34;;;;;;;1.97;0.60;;;;;;;17.90;81.21;100399.22;4983147;28;20022;-80
2021/08/03 11:10:25;;;;;;;1.92;0.52;;;;;;;17.72;76.02;100393.09;4982498;28;20326;-80
2021/08/03 11:12:51;;;;;;;3.20;0.68;;;;;;;17.49;78.00;100392.50;4982396;28;20111;-80
2021/08/03 11:15:20;;;;;;;1.73;0.50;;;;;;;17.76;79.79;100386.78;4981852;28;20031;-81
2021/08/03 11:18:01;;;;;;;4.78;0.70;;;;;;;17.77;77.67;100385.91;4980613;28;20026;-81
2021/08/03 11:20:36;;;;;;;2.17;0.60;;;;;;;18.24;77.88;100386.97;4982820;28;20447;-80
2021/08/03 11:23:15;;;;;;;2.33;0.80;;;;;;;18.24;73.34;100389.63;4981698;28;20031;-81
2021/08/03 11:25:42;;;;;;;2.88;1.20;;;;;;;18.69;70.42;100388.06;4982919;28;20082;-80
2021/08/03 11:28:08;;;;;;;2.45;0.73;;;;;;;18.83;71.00;100390.81;4981450;28;20026;-81